Time;durP1;ratioP1;P1;durP2;ratioP2;P2;SDS_P1;SDS_P2;PMS_P1;PMS_P2;Temp;Humidity;BMP_temperature;BMP_pressure;BME280_temperature;BME280_humidity;BME280_pressure;Samples;Min_cycle;Max_cycle;Signal;HPM_P1;HPM_P2
2021/08/06 00:00:17;;;;;;;3.75;2.20;;;;;;;;;;1493407;39;20032;-59
2021/08/06 00:01:20;;;;;;;3.85;2.20;;;;;;;;;;1493274;39;20392;-58
2021/08/06 00:02:22;;;;;;;5.03;2.20;;;;;;;;;;1493394;39;20032;-58
2021/08/06 00:03:23;;;;;;;3.30;1.83;;;;;;;;;;1493179;39;20032;-59
2021/08/06 00:04:24;;;;;;;3.35;2.13;;;;;;;;;;1493126;39;20056;-59
2021/08/06 00:05:25;;;;;;;3.58;2.00;;;;;;;;;;1492974;39;20031;-59
2021/08/06 00:06:28;;;;;;;4.45;2.08;;;;;;;;;;1492877;39;20024;-59
2021/08/06 00:07:28;;;;;;;3.92;2.33;;;;;;;;;;1492845;39;20060;-58
2021/08/06 00:08:30;;;;;;;4.50;2.30;;;;;;;;;;1493029;39;20108;-58
2021/08/06 00:09:37;;;;;;;3.13;2.10;;;;;;;;;;1492838;39;20031;-58
2021/08/06 00:10:38;;;;;;;5.47;2.28;;;;;;;;;;1492857;39;20030;-59
2021/08/06 00:11:40;;;;;;;4.25;2.08;;;;;;;;;;1492845;39;20291;-57
2021/08/06 00:12:41;;;;;;;2.90;2.00;;;;;;;;;;1492692;39;20295;-59
2021/08/06 00:13:43;;;;;;;3.17;2.15;;;;;;;;;;1492894;39;20024;-57
2021/08/06 00:14:44;;;;;;;3.60;2.25;;;;;;;;;;1492668;39;20299;-58
2021/08/06 00:15:46;;;;;;;3.05;2.10;;;;;;;;;;1492853;39;20024;-58
2021/08/06 00:16:47;;;;;;;3.97;2.20;;;;;;;;;;1492864;39;20029;-58
2021/08/06 00:17:49;;;;;;;3.03;2.10;;;;;;;;;;1492754;39;20287;-58
2021/08/06 00:18:50;;;;;;;2.75;1.92;;;;;;;;;;1492756;39;20031;-57
2021/08/06 00:19:52;;;;;;;3.97;2.33;;;;;;;;;;1492921;39;20028;-57
2021/08/06 00:20:53;;;;;;;4.60;2.03;;;;;;;;;;1492680;39;20024;-57
2021/08/06 00:21:54;;;;;;;3.42;1.90;;;;;;;;;;1492939;39;20047;-57
2021/08/06 00:22:56;;;;;;;3.13;1.90;;;;;;;;;;1492728;39;20031;-58
2021/08/06 00:23:57;;;;;;;4.07;1.95;;;;;;;;;;1492710;39;20431;-58
2021/08/06 00:25:00;;;;;;;4.32;1.80;;;;;;;;;;1492784;39;20028;-58
2021/08/06 00:26:01;;;;;;;3.10;2.03;;;;;;;;;;1492823;39;20027;-58
2021/08/06 00:27:04;;;;;;;3.70;2.20;;;;;;;;;;1492670;39;20028;-58
2021/08/06 00:28:05;;;;;;;3.15;2.00;;;;;;;;;;1492702;39;20031;-58
2021/08/06 00:29:08;;;;;;;3.17;2.10;;;;;;;;;;1492631;39;20450;-57
2021/08/06 00:30:10;;;;;;;4.20;2.30;;;;;;;;;;1492623;39;20043;-57
2021/08/06 00:31:11;;;;;;;4.82;2.10;;;;;;;;;;1492784;39;20028;-57
2021/08/06 00:32:12;;;;;;;4.25;2.15;;;;;;;;;;1492713;39;20020;-57
2021/08/06 00:33:14;;;;;;;6.25;2.20;;;;;;;;;;1492678;39;20020;-57
2021/08/06 00:34:16;;;;;;;3.40;2.00;;;;;;;;;;1492651;39;20024;-57
2021/08/06 00:35:17;;;;;;;3.92;2.10;;;;;;;;;;1492679;39;20388;-57
2021/08/06 00:36:19;;;;;;;4.45;2.22;;;;;;;;;;1492634;39;20121;-57
2021/08/06 00:37:19;;;;;;;4.95;2.05;;;;;;;;;;1492635;39;20384;-57
2021/08/06 00:38:21;;;;;;;3.25;2.13;;;;;;;;;;1492122;39;20036;-59
2021/08/06 00:39:22;;;;;;;5.15;2.03;;;;;;;;;;1492312;39;20027;-57
2021/08/06 00:40:25;;;;;;;4.55;2.03;;;;;;;;;;1492756;39;20403;-57
2021/08/06 00:41:26;;;;;;;5.82;2.20;;;;;;;;;;1492581;39;20291;-57
2021/08/06 00:42:28;;;;;;;4.22;1.98;;;;;;;;;;1492741;39;20028;-58
2021/08/06 00:43:30;;;;;;;5.38;2.30;;;;;;;;;;1492698;39;20027;-57
2021/08/06 00:44:32;;;;;;;3.92;2.05;;;;;;;;;;1492796;39;20031;-58
2021/08/06 00:45:33;;;;;;;3.78;2.30;;;;;;;;;;1492752;39;20027;-57
2021/08/06 00:46:35;;;;;;;5.18;2.17;;;;;;;;;;1492741;39;20047;-57
2021/08/06 00:47:36;;;;;;;4.18;2.30;;;;;;;;;;1492690;39;20035;-58
2021/08/06 00:48:38;;;;;;;6.18;2.20;;;;;;;;;;1492773;39;20024;-57
2021/08/06 00:49:40;;;;;;;5.57;2.30;;;;;;;;;;1492612;39;20032;-57
2021/08/06 00:50:41;;;;;;;3.63;1.92;;;;;;;;;;1492650;39;20024;-57
2021/08/06 00:51:43;;;;;;;6.50;2.10;;;;;;;;;;1492620;39;20027;-58
2021/08/06 00:52:44;;;;;;;3.65;2.20;;;;;;;;;;1492554;39;20035;-58
2021/08/06 00:53:45;;;;;;;4.75;1.98;;;;;;;;;;1492743;39;20020;-57
2021/08/06 00:54:48;;;;;;;4.53;2.05;;;;;;;;;;1493058;39;20020;-57
2021/08/06 00:55:51;;;;;;;4.82;2.42;;;;;;;;;;1493270;39;20028;-57
2021/08/06 00:56:53;;;;;;;3.17;2.08;;;;;;;;;;1493325;39;20024;-57
2021/08/06 00:57:55;;;;;;;3.42;2.00;;;;;;;;;;1493309;39;20031;-57
2021/08/06 00:58:57;;;;;;;4.65;2.30;;;;;;;;;;1493341;39;20027;-58
2021/08/06 00:59:58;;;;;;;2.65;1.80;;;;;;;;;;1493215;39;20044;-58
2021/08/06 01:00:59;;;;;;;3.60;2.20;;;;;;;;;;1493204;39;20383;-58
2021/08/06 01:02:06;;;;;;;5.50;2.45;;;;;;;;;;1493415;39;20020;-58
2021/08/06 01:03:17;;;;;;;4.43;2.15;;;;;;;;;;1492749;39;20032;-57
2021/08/06 01:04:24;;;;;;;4.15;2.00;;;;;;;;;;1492895;39;20023;-57
2021/08/06 01:05:29;;;;;;;6.90;2.33;;;;;;;;;;1492812;39;20236;-58
2021/08/06 01:06:37;;;;;;;3.33;2.20;;;;;;;;;;1492711;39;20081;-58
2021/08/06 01:07:49;;;;;;;5.90;2.20;;;;;;;;;;1493352;39;20032;-57
2021/08/06 01:08:59;;;;;;;5.25;2.13;;;;;;;;;;1493427;39;20369;-57
2021/08/06 01:10:05;;;;;;;2.75;1.90;;;;;;;;;;1493201;39;20035;-57
2021/08/06 01:11:08;;;;;;;3.40;2.20;;;;;;;;;;1492632;39;20421;-57
2021/08/06 01:12:15;;;;;;;6.43;2.20;;;;;;;;;;1492688;39;20392;-57
2021/08/06 01:13:22;;;;;;;4.95;2.38;;;;;;;;;;1493303;39;20039;-58
2021/08/06 01:14:27;;;;;;;4.68;2.40;;;;;;;;;;1493424;39;20036;-57
2021/08/06 01:15:30;;;;;;;3.67;2.22;;;;;;;;;;1493322;39;20034;-58
2021/08/06 01:16:33;;;;;;;4.30;2.20;;;;;;;;;;1493314;39;20089;-60
2021/08/06 01:17:38;;;;;;;4.03;2.10;;;;;;;;;;1493180;39;20027;-59
2021/08/06 01:18:44;;;;;;;5.95;2.30;;;;;;;;;;1493287;39;20024;-59
2021/08/06 01:19:54;;;;;;;4.15;2.22;;;;;;;;;;1493281;39;20032;-59
2021/08/06 01:20:57;;;;;;;5.65;2.45;;;;;;;;;;1493341;39;20035;-58
2021/08/06 01:22:02;;;;;;;3.67;2.13;;;;;;;;;;1493163;39;20038;-59
2021/08/06 01:23:12;;;;;;;4.47;2.20;;;;;;;;;;1493291;39;20036;-59
2021/08/06 01:24:17;;;;;;;3.80;2.17;;;;;;;;;;1492845;39;20024;-59
2021/08/06 01:25:35;;;;;;;4.13;2.30;;;;;;;;;;1492911;39;20065;-59
2021/08/06 01:26:37;;;;;;;3.80;2.40;;;;;;;;;;1493181;39;20024;-59
2021/08/06 01:27:38;;;;;;;3.33;2.13;;;;;;;;;;1493170;39;20462;-59
2021/08/06 01:28:43;;;;;;;3.60;2.13;;;;;;;;;;1493334;39;20035;-59
2021/08/06 01:29:43;;;;;;;9.20;2.50;;;;;;;;;;1493181;39;20024;-59
2021/08/06 01:30:46;;;;;;;5.57;2.10;;;;;;;;;;1493277;39;20031;-59
2021/08/06 01:31:48;;;;;;;7.18;2.53;;;;;;;;;;1493206;39;20031;-59
2021/08/06 01:32:54;;;;;;;4.28;2.13;;;;;;;;;;1493310;39;20040;-59
2021/08/06 01:33:56;;;;;;;5.43;2.30;;;;;;;;;;1493295;39;20024;-59
2021/08/06 01:34:58;;;;;;;3.40;2.05;;;;;;;;;;1493211;39;20024;-59
2021/08/06 01:36:00;;;;;;;4.47;2.38;;;;;;;;;;1493127;39;20020;-58
2021/08/06 01:37:01;;;;;;;2.70;1.98;;;;;;;;;;1493161;39;20388;-59
2021/08/06 01:38:03;;;;;;;3.92;2.45;;;;;;;;;;1493161;39;20027;-58
2021/08/06 01:39:04;;;;;;;4.13;2.30;;;;;;;;;;1493151;39;20391;-59
2021/08/06 01:40:08;;;;;;;4.95;2.20;;;;;;;;;;1493120;39;20034;-59
2021/08/06 01:41:18;;;;;;;5.35;2.40;;;;;;;;;;1493111;39;20028;-59
2021/08/06 01:42:25;;;;;;;;;;;;;;;;;;1493830;39;20035;-56
2021/08/06 01:43:29;;;;;;;6.13;2.45;;;;;;;;;;1493149;39;19934;-59
2021/08/06 01:44:35;;;;;;;4.47;2.05;;;;;;;;;;1493180;39;20360;-59
2021/08/06 01:45:42;;;;;;;5.30;2.80;;;;;;;;;;1493139;39;20024;-59
2021/08/06 01:46:49;;;;;;;3.95;2.40;;;;;;;;;;1493165;39;20039;-59
2021/08/06 01:47:52;;;;;;;4.53;2.30;;;;;;;;;;1493128;39;20024;-59
2021/08/06 01:48:59;;;;;;;5.63;2.47;;;;;;;;;;1493217;39;20032;-59
2021/08/06 01:50:03;;;;;;;4.75;2.28;;;;;;;;;;1493142;39;20028;-59
2021/08/06 01:51:08;;;;;;;5.18;2.38;;;;;;;;;;1493347;39;20020;-59
2021/08/06 01:52:12;;;;;;;6.63;2.58;;;;;;;;;;1493241;39;20028;-59
2021/08/06 01:53:17;;;;;;;5.18;2.35;;;;;;;;;;1493076;39;20024;-58
2021/08/06 01:54:20;;;;;;;3.15;2.10;;;;;;;;;;1493349;39;20078;-58
2021/08/06 01:55:22;;;;;;;4.45;2.15;;;;;;;;;;1493194;39;20031;-59
2021/08/06 01:56:26;;;;;;;5.10;2.15;;;;;;;;;;1493201;39;20283;-59
2021/08/06 01:57:29;;;;;;;6.00;2.22;;;;;;;;;;1493137;39;20031;-59
2021/08/06 01:58:30;;;;;;;5.03;2.20;;;;;;;;;;1493106;39;20291;-59
2021/08/06 01:59:33;;;;;;;3.53;2.00;;;;;;;;;;1493347;39;20032;-59
2021/08/06 02:00:34;;;;;;;4.88;2.30;;;;;;;;;;1493044;39;20032;-59
2021/08/06 02:01:36;;;;;;;4.72;2.25;;;;;;;;;;1493130;39;20028;-59
2021/08/06 02:02:38;;;;;;;5.45;2.03;;;;;;;;;;1493143;39;20024;-59
2021/08/06 02:03:40;;;;;;;5.50;2.55;;;;;;;;;;1493118;39;20024;-59
2021/08/06 02:04:44;;;;;;;4.35;2.20;;;;;;;;;;1493171;39;20035;-59
2021/08/06 02:05:50;;;;;;;5.13;2.40;;;;;;;;;;1493187;39;20317;-59
2021/08/06 02:06:52;;;;;;;4.00;2.58;;;;;;;;;;1493146;39;20407;-58
2021/08/06 02:07:53;;;;;;;3.65;2.20;;;;;;;;;;1493310;39;20039;-59
2021/08/06 02:08:54;;;;;;;3.95;2.50;;;;;;;;;;1493207;39;20039;-59
2021/08/06 02:09:56;;;;;;;8.27;2.40;;;;;;;;;;1493086;39;20394;-59
2021/08/06 02:10:57;;;;;;;4.25;2.38;;;;;;;;;;1493051;39;20024;-59
2021/08/06 02:12:00;;;;;;;4.32;2.38;;;;;;;;;;1493249;39;20056;-59
2021/08/06 02:13:02;;;;;;;5.25;2.60;;;;;;;;;;1493029;39;20028;-59
2021/08/06 02:14:04;;;;;;;3.15;2.15;;;;;;;;;;1493177;39;20040;-59
2021/08/06 02:15:06;;;;;;;7.22;2.40;;;;;;;;;;1493028;39;20043;-59
2021/08/06 02:16:09;;;;;;;5.30;2.42;;;;;;;;;;1493071;39;20032;-58
2021/08/06 02:17:12;;;;;;;6.20;2.50;;;;;;;;;;1523544;22;20033;-60
2021/08/06 02:18:16;;;;;;;5.13;2.20;;;;;;;;;;1484842;40;20051;-60
2021/08/06 02:19:20;;;;;;;3.72;2.13;;;;;;;;;;1484742;40;20551;-60
2021/08/06 02:20:24;;;;;;;4.32;2.60;;;;;;;;;;1484752;40;20047;-60
2021/08/06 02:21:31;;;;;;;4.47;2.40;;;;;;;;;;1484687;40;20028;-60
2021/08/06 02:22:33;;;;;;;4.20;2.55;;;;;;;;;;1484800;40;20025;-60
2021/08/06 02:23:36;;;;;;;4.00;2.58;;;;;;;;;;1484801;40;20029;-60
2021/08/06 02:24:39;;;;;;;4.20;2.53;;;;;;;;;;1484787;40;20064;-60
2021/08/06 02:25:42;;;;;;;4.90;2.30;;;;;;;;;;1484875;40;20033;-60
2021/08/06 02:26:47;;;;;;;5.32;2.45;;;;;;;;;;1484646;40;20039;-61
2021/08/06 02:27:50;;;;;;;4.35;2.33;;;;;;;;;;1484754;40;20021;-60
2021/08/06 02:28:52;;;;;;;4.68;2.17;;;;;;;;;;1484671;40;20039;-60
2021/08/06 02:29:56;;;;;;;4.80;2.47;;;;;;;;;;1484707;40;20025;-60
2021/08/06 02:30:58;;;;;;;4.07;2.20;;;;;;;;;;1484663;40;20264;-61
2021/08/06 02:32:01;;;;;;;2.97;2.10;;;;;;;;;;1484176;40;20029;-60
2021/08/06 02:33:03;;;;;;;6.03;2.38;;;;;;;;;;1484247;40;20029;-60
2021/08/06 02:34:05;;;;;;;6.70;2.60;;;;;;;;;;1484671;40;20024;-60
2021/08/06 02:35:09;;;;;;;6.65;2.40;;;;;;;;;;1484693;40;20407;-60
2021/08/06 02:36:11;;;;;;;6.30;2.55;;;;;;;;;;1484640;40;20030;-60
2021/08/06 02:37:12;;;;;;;5.03;2.53;;;;;;;;;;1484765;40;20029;-60
2021/08/06 02:38:20;;;;;;;6.40;2.83;;;;;;;;;;1484621;40;20065;-60
2021/08/06 02:39:25;;;;;;;4.65;2.53;;;;;;;;;;1484759;40;20324;-61
2021/08/06 02:40:26;;;;;;;7.03;2.60;;;;;;;;;;1484693;40;20052;-61
2021/08/06 02:41:28;;;;;;;5.63;2.55;;;;;;;;;;1484744;40;20033;-60
2021/08/06 02:42:31;;;;;;;4.28;2.50;;;;;;;;;;1484694;40;20035;-61
2021/08/06 02:43:34;;;;;;;4.90;2.30;;;;;;;;;;1484568;40;20025;-60
2021/08/06 02:44:36;;;;;;;7.90;2.40;;;;;;;;;;1484628;40;20028;-60
2021/08/06 02:45:53;;;;;;;5.07;2.70;;;;;;;;;;1484719;40;20032;-60
2021/08/06 02:46:54;;;;;;;5.15;2.63;;;;;;;;;;1484606;40;20029;-61
2021/08/06 02:47:56;;;;;;;5.68;2.70;;;;;;;;;;1484710;40;20040;-60
2021/08/06 02:48:57;;;;;;;5.93;2.80;;;;;;;;;;1484566;40;20025;-60
2021/08/06 02:49:59;;;;;;;4.63;2.60;;;;;;;;;;1484303;40;20029;-61
2021/08/06 02:51:00;;;;;;;4.78;2.30;;;;;;;;;;1484097;40;20025;-60
2021/08/06 02:52:04;;;;;;;4.88;2.90;;;;;;;;;;1484586;40;20024;-60
2021/08/06 02:53:06;;;;;;;6.80;3.25;;;;;;;;;;1484522;40;20032;-60
2021/08/06 02:54:07;;;;;;;12.07;3.13;;;;;;;;;;1484672;40;20017;-60
2021/08/06 02:55:09;;;;;;;6.15;2.83;;;;;;;;;;1484601;40;20024;-60
2021/08/06 02:56:10;;;;;;;10.90;3.22;;;;;;;;;;1484629;40;20375;-60
2021/08/06 02:57:11;;;;;;;5.75;2.80;;;;;;;;;;1484581;40;20040;-61
2021/08/06 02:58:13;;;;;;;7.35;3.08;;;;;;;;;;1484623;40;20021;-60
2021/08/06 02:59:15;;;;;;;5.80;3.05;;;;;;;;;;1484674;40;20043;-60
2021/08/06 03:00:17;;;;;;;8.63;3.47;;;;;;;;;;1484609;40;20025;-59
2021/08/06 03:01:19;;;;;;;4.43;2.90;;;;;;;;;;1484572;40;20036;-61
2021/08/06 03:02:20;;;;;;;6.28;3.10;;;;;;;;;;1484551;40;20025;-60
2021/08/06 03:03:22;;;;;;;6.38;3.50;;;;;;;;;;1484591;40;20037;-60
2021/08/06 03:04:22;;;;;;;8.20;3.90;;;;;;;;;;1484485;40;20020;-60
2021/08/06 03:05:24;;;;;;;9.45;3.58;;;;;;;;;;1484585;40;20032;-61
2021/08/06 03:06:25;;;;;;;5.95;3.40;;;;;;;;;;1484689;40;20047;-60
2021/08/06 03:07:27;;;;;;;6.55;3.55;;;;;;;;;;1484547;40;20037;-60
2021/08/06 03:08:28;;;;;;;7.63;3.83;;;;;;;;;;1484641;40;20025;-60
2021/08/06 03:09:29;;;;;;;6.63;3.78;;;;;;;;;;1484606;40;20021;-61
2021/08/06 03:10:30;;;;;;;5.90;3.70;;;;;;;;;;1484469;40;20028;-61
2021/08/06 03:11:32;;;;;;;8.45;3.28;;;;;;;;;;1484617;40;20060;-60
2021/08/06 03:12:33;;;;;;;4.57;3.30;;;;;;;;;;1484622;40;20025;-61
2021/08/06 03:13:35;;;;;;;7.80;3.55;;;;;;;;;;1484689;40;20029;-60
2021/08/06 03:14:37;;;;;;;7.50;3.50;;;;;;;;;;1484597;40;20032;-60
2021/08/06 03:15:39;;;;;;;6.45;3.20;;;;;;;;;;1484619;40;20295;-60
2021/08/06 03:16:39;;;;;;;8.25;3.60;;;;;;;;;;1484362;40;20024;-62
2021/08/06 03:17:42;;;;;;;8.38;3.75;;;;;;;;;;1484339;40;20061;-60
2021/08/06 03:18:43;;;;;;;4.13;3.03;;;;;;;;;;1484468;40;20051;-60
2021/08/06 03:19:45;;;;;;;9.65;3.80;;;;;;;;;;1484621;40;20029;-61
2021/08/06 03:20:45;;;;;;;8.65;3.40;;;;;;;;;;1484519;40;20386;-60
2021/08/06 03:21:48;;;;;;;9.25;3.40;;;;;;;;;;1484503;40;20032;-60
2021/08/06 03:22:50;;;;;;;10.40;3.40;;;;;;;;;;1484473;40;20040;-60
2021/08/06 03:23:52;;;;;;;7.15;3.30;;;;;;;;;;1484004;40;20037;-60
2021/08/06 03:24:53;;;;;;;7.80;3.65;;;;;;;;;;1484048;40;20392;-60
2021/08/06 03:25:55;;;;;;;6.00;2.97;;;;;;;;;;1484697;40;20067;-60
2021/08/06 03:26:56;;;;;;;7.93;3.50;;;;;;;;;;1484430;40;20036;-60
2021/08/06 03:27:58;;;;;;;7.38;3.40;;;;;;;;;;1484563;40;20025;-60
2021/08/06 03:28:59;;;;;;;4.43;2.90;;;;;;;;;;1484572;40;20031;-61
2021/08/06 03:30:02;;;;;;;8.57;3.30;;;;;;;;;;1484585;40;20032;-60
2021/08/06 03:31:05;;;;;;;7.22;3.65;;;;;;;;;;1484515;40;20072;-61
2021/08/06 03:32:06;;;;;;;7.05;3.33;;;;;;;;;;1484470;40;20031;-60
2021/08/06 03:33:08;;;;;;;5.05;2.90;;;;;;;;;;1484598;40;20315;-60
2021/08/06 03:34:10;;;;;;;6.05;3.20;;;;;;;;;;1484506;40;20271;-60
2021/08/06 03:35:13;;;;;;;8.50;3.35;;;;;;;;;;1484576;40;20025;-61
2021/08/06 03:36:15;;;;;;;6.07;3.03;;;;;;;;;;1484518;40;20028;-60
2021/08/06 03:37:16;;;;;;;5.80;2.97;;;;;;;;;;1484467;40;20035;-60
2021/08/06 03:38:19;;;;;;;5.53;3.10;;;;;;;;;;1484452;40;20029;-60
2021/08/06 03:39:21;;;;;;;5.05;3.05;;;;;;;;;;1484569;40;20043;-61
2021/08/06 03:40:23;;;;;;;6.95;3.20;;;;;;;;;;1483895;40;20037;-61
2021/08/06 03:41:24;;;;;;;6.68;2.88;;;;;;;;;;1484096;40;20025;-59
2021/08/06 03:42:26;;;;;;;7.00;2.60;;;;;;;;;;1484395;40;20390;-60
2021/08/06 03:43:27;;;;;;;6.43;2.78;;;;;;;;;;1484617;40;20047;-60
2021/08/06 03:44:28;;;;;;;6.40;3.50;;;;;;;;;;1484409;40;20029;-60
2021/08/06 03:45:31;;;;;;;6.85;3.42;;;;;;;;;;1484449;40;20028;-60
2021/08/06 03:46:32;;;;;;;5.88;3.17;;;;;;;;;;1484408;40;20320;-59
2021/08/06 03:47:35;;;;;;;7.68;3.03;;;;;;;;;;1484499;40;20032;-60
2021/08/06 03:48:37;;;;;;;4.32;2.70;;;;;;;;;;1484487;40;20028;-60
2021/08/06 03:49:38;;;;;;;4.97;2.90;;;;;;;;;;1484352;40;20033;-60
2021/08/06 03:50:42;;;;;;;4.60;2.67;;;;;;;;;;1484588;40;20025;-59
2021/08/06 03:51:43;;;;;;;5.50;3.05;;;;;;;;;;1484500;40;20037;-59
2021/08/06 03:52:44;;;;;;;4.40;2.80;;;;;;;;;;1484471;40;20036;-60
2021/08/06 03:53:45;;;;;;;8.00;3.20;;;;;;;;;;1484374;40;20025;-61
2021/08/06 03:54:47;;;;;;;6.28;3.08;;;;;;;;;;1484390;40;20284;-60
2021/08/06 03:55:48;;;;;;;6.18;2.95;;;;;;;;;;1484487;40;20021;-60
2021/08/06 03:56:50;;;;;;;6.47;3.28;;;;;;;;;;1484460;40;20396;-60
2021/08/06 03:57:52;;;;;;;4.18;2.78;;;;;;;;;;1484492;40;20147;-60
2021/08/06 03:58:53;;;;;;;5.82;2.85;;;;;;;;;;1484542;40;20033;-60
2021/08/06 03:59:54;;;;;;;8.00;2.83;;;;;;;;;;1484451;40;20036;-60
2021/08/06 04:00:57;;;;;;;5.90;2.50;;;;;;;;;;1484483;40;20028;-60
2021/08/06 04:01:58;;;;;;;5.25;2.97;;;;;;;;;;1484399;40;20021;-59
2021/08/06 04:03:00;;;;;;;5.57;3.10;;;;;;;;;;1484467;40;20311;-60
2021/08/06 04:04:02;;;;;;;5.95;3.25;;;;;;;;;;1484463;40;20025;-60
2021/08/06 04:05:03;;;;;;;6.57;2.92;;;;;;;;;;1484415;40;20025;-60
2021/08/06 04:06:05;;;;;;;6.60;3.28;;;;;;;;;;1484531;40;20025;-60
2021/08/06 04:07:05;;;;;;;7.57;2.90;;;;;;;;;;1483764;40;20036;-59
2021/08/06 04:08:09;;;;;;;5.40;3.10;;;;;;;;;;1484016;40;20036;-59
2021/08/06 04:09:10;;;;;;;7.93;2.70;;;;;;;;;;1484528;40;20060;-60
2021/08/06 04:10:14;;;;;;;6.18;2.70;;;;;;;;;;1484420;40;20388;-60
2021/08/06 04:11:15;;;;;;;4.95;3.00;;;;;;;;;;1484395;40;20388;-60
2021/08/06 04:12:16;;;;;;;5.05;2.80;;;;;;;;;;1484331;40;20025;-60
2021/08/06 04:13:18;;;;;;;7.05;2.95;;;;;;;;;;1484413;40;20395;-60
2021/08/06 04:14:20;;;;;;;7.35;2.72;;;;;;;;;;1484353;40;20376;-60
2021/08/06 04:15:22;;;;;;;8.43;3.00;;;;;;;;;;1483838;40;20025;-59
2021/08/06 04:16:24;;;;;;;5.50;2.58;;;;;;;;;;1483903;40;20079;-60
2021/08/06 04:17:26;;;;;;;6.28;2.60;;;;;;;;;;1484509;40;20312;-60
2021/08/06 04:18:27;;;;;;;8.20;2.67;;;;;;;;;;1484352;40;20025;-60
2021/08/06 04:19:28;;;;;;;9.02;3.03;;;;;;;;;;1484333;40;20025;-60
2021/08/06 04:20:30;;;;;;;7.15;3.05;;;;;;;;;;1484337;40;20414;-60
2021/08/06 04:21:31;;;;;;;5.80;2.65;;;;;;;;;;1484333;40;20024;-60
2021/08/06 04:22:33;;;;;;;8.23;2.75;;;;;;;;;;1484379;40;20311;-60
2021/08/06 04:23:34;;;;;;;9.77;3.17;;;;;;;;;;1484346;40;20380;-60
2021/08/06 04:24:36;;;;;;;8.77;3.33;;;;;;;;;;1484291;40;20035;-60
2021/08/06 04:25:36;;;;;;;7.30;3.08;;;;;;;;;;1484299;40;20029;-60
2021/08/06 04:26:38;;;;;;;5.15;2.92;;;;;;;;;;1484501;40;20021;-60
2021/08/06 04:27:39;;;;;;;9.57;3.17;;;;;;;;;;1484367;40;20043;-59
2021/08/06 04:28:41;;;;;;;5.65;2.85;;;;;;;;;;1484249;40;20032;-60
2021/08/06 04:29:43;;;;;;;4.82;2.63;;;;;;;;;;1484811;40;20025;-60
2021/08/06 04:30:45;;;;;;;7.47;2.90;;;;;;;;;;1484927;40;20033;-60
2021/08/06 04:31:48;;;;;;;8.70;3.03;;;;;;;;;;1484965;40;20021;-60
2021/08/06 04:32:49;;;;;;;7.60;3.35;;;;;;;;;;1484847;40;20119;-59
2021/08/06 04:33:51;;;;;;;7.22;2.63;;;;;;;;;;1484982;40;20029;-60
2021/08/06 04:34:51;;;;;;;5.38;2.92;;;;;;;;;;1484944;40;20029;-60
2021/08/06 04:35:53;;;;;;;6.28;3.22;;;;;;;;;;1484919;40;20065;-59
2021/08/06 04:36:54;;;;;;;6.50;3.15;;;;;;;;;;1484532;40;20024;-60
2021/08/06 04:37:57;;;;;;;7.07;2.75;;;;;;;;;;1484595;40;20407;-59
2021/08/06 04:38:58;;;;;;;6.57;2.90;;;;;;;;;;1485112;40;20028;-59
2021/08/06 04:40:00;;;;;;;6.75;2.90;;;;;;;;;;1485011;40;20060;-61
2021/08/06 04:41:02;;;;;;;5.05;2.72;;;;;;;;;;1485009;40;20031;-59
2021/08/06 04:42:03;;;;;;;9.93;2.90;;;;;;;;;;1485146;40;20105;-60
2021/08/06 04:43:05;;;;;;;5.00;2.65;;;;;;;;;;1484902;40;20025;-59
2021/08/06 04:44:06;;;;;;;10.27;3.10;;;;;;;;;;1485007;40;20055;-60
2021/08/06 04:45:09;;;;;;;6.55;3.05;;;;;;;;;;1484461;40;20037;-60
2021/08/06 04:46:10;;;;;;;6.43;2.90;;;;;;;;;;1484475;40;20025;-59
2021/08/06 04:47:12;;;;;;;5.57;2.80;;;;;;;;;;1484950;40;20064;-60
2021/08/06 04:48:19;;;;;;;5.70;2.60;;;;;;;;;;1485027;40;20052;-60
2021/08/06 04:49:20;;;;;;;4.78;3.08;;;;;;;;;;1485078;40;20415;-60
2021/08/06 04:50:24;;;;;;;5.80;2.70;;;;;;;;;;1485017;40;20037;-60
2021/08/06 04:51:25;;;;;;;6.30;2.80;;;;;;;;;;1484285;40;20029;-60
2021/08/06 04:52:26;;;;;;;6.35;3.03;;;;;;;;;;1484354;40;20032;-59
2021/08/06 04:53:30;;;;;;;6.32;2.90;;;;;;;;;;1484844;40;20029;-59
2021/08/06 04:54:31;;;;;;;5.45;2.58;;;;;;;;;;1484898;40;20295;-60
2021/08/06 04:55:33;;;;;;;4.35;2.65;;;;;;;;;;1485085;40;20032;-60
2021/08/06 04:56:35;;;;;;;5.82;2.50;;;;;;;;;;1484879;40;20021;-60
2021/08/06 04:57:36;;;;;;;6.10;2.70;;;;;;;;;;1484867;40;20029;-60
2021/08/06 04:58:38;;;;;;;6.78;3.42;;;;;;;;;;1484941;40;20288;-60
2021/08/06 04:59:39;;;;;;;6.40;2.50;;;;;;;;;;1484849;40;20020;-59
2021/08/06 05:00:40;;;;;;;4.82;2.40;;;;;;;;;;1484954;40;20025;-60
2021/08/06 05:01:42;;;;;;;4.53;2.90;;;;;;;;;;1484834;40;20029;-60
2021/08/06 05:02:45;;;;;;;5.47;2.90;;;;;;;;;;1484826;40;20025;-60
2021/08/06 05:03:48;;;;;;;4.15;2.38;;;;;;;;;;1484799;40;20135;-60
2021/08/06 05:04:48;;;;;;;6.05;2.70;;;;;;;;;;1484936;40;20025;-60
2021/08/06 05:05:50;;;;;;;5.35;2.50;;;;;;;;;;1484925;40;20033;-61
2021/08/06 05:06:51;;;;;;;4.85;2.60;;;;;;;;;;1484750;40;20036;-60
2021/08/06 05:07:54;;;;;;;6.43;2.80;;;;;;;;;;1484979;40;20084;-60
2021/08/06 05:08:55;;;;;;;5.15;2.90;;;;;;;;;;1484801;40;20438;-59
2021/08/06 05:09:57;;;;;;;6.38;2.40;;;;;;;;;;1484798;40;20025;-60
2021/08/06 05:10:58;;;;;;;6.18;2.72;;;;;;;;;;1484929;40;20021;-61
2021/08/06 05:12:00;;;;;;;4.45;2.40;;;;;;;;;;1484934;40;20029;-60
2021/08/06 05:13:00;;;;;;;5.50;2.58;;;;;;;;;;1484766;40;20024;-60
2021/08/06 05:14:02;;;;;;;5.40;2.60;;;;;;;;;;1484947;40;20036;-60
2021/08/06 05:15:04;;;;;;;4.68;2.67;;;;;;;;;;1484779;40;20017;-60
2021/08/06 05:16:06;;;;;;;7.25;2.72;;;;;;;;;;1484953;40;20408;-61
2021/08/06 05:17:07;;;;;;;5.43;2.65;;;;;;;;;;1484867;40;20048;-60
2021/08/06 05:18:10;;;;;;;5.20;2.70;;;;;;;;;;1484915;40;20404;-61
2021/08/06 05:19:11;;;;;;;3.67;2.40;;;;;;;;;;1484758;40;20036;-61
2021/08/06 05:20:14;;;;;;;7.07;2.65;;;;;;;;;;1484775;40;20024;-60
2021/08/06 05:21:16;;;;;;;4.57;2.88;;;;;;;;;;1484905;40;20021;-61
2021/08/06 05:22:17;;;;;;;4.85;2.88;;;;;;;;;;1484833;40;20036;-60
2021/08/06 05:23:19;;;;;;;6.20;2.58;;;;;;;;;;1484833;40;20024;-61
2021/08/06 05:24:20;;;;;;;5.72;2.88;;;;;;;;;;1484793;40;20323;-60
2021/08/06 05:25:22;;;;;;;5.72;2.50;;;;;;;;;;1484872;40;20037;-61
2021/08/06 05:26:24;;;;;;;3.83;2.47;;;;;;;;;;1484760;40;20029;-61
2021/08/06 05:27:25;;;;;;;5.20;2.90;;;;;;;;;;1484663;40;20025;-61
2021/08/06 05:28:26;;;;;;;7.18;2.67;;;;;;;;;;1485018;40;20028;-61
2021/08/06 05:29:27;;;;;;;3.70;2.67;;;;;;;;;;1484874;40;20048;-60
2021/08/06 05:30:29;;;;;;;6.28;2.85;;;;;;;;;;1484888;40;20403;-60
2021/08/06 05:31:30;;;;;;;4.97;2.58;;;;;;;;;;1484898;40;20021;-61
2021/08/06 05:32:32;;;;;;;4.53;2.90;;;;;;;;;;1484765;40;20025;-60
2021/08/06 05:33:35;;;;;;;5.13;2.70;;;;;;;;;;1484880;40;20417;-61
2021/08/06 05:34:36;;;;;;;7.53;3.00;;;;;;;;;;1484867;40;20025;-61
2021/08/06 05:35:39;;;;;;;6.30;2.63;;;;;;;;;;1484326;40;20028;-61
2021/08/06 05:36:39;;;;;;;5.43;2.58;;;;;;;;;;1484369;40;20047;-62
2021/08/06 05:37:41;;;;;;;4.85;2.60;;;;;;;;;;1484854;40;20385;-60
2021/08/06 05:38:43;;;;;;;8.75;3.03;;;;;;;;;;1484929;40;20076;-61
2021/08/06 05:39:44;;;;;;;5.35;2.45;;;;;;;;;;1484735;40;20021;-60
2021/08/06 05:40:45;;;;;;;7.88;2.80;;;;;;;;;;1484645;40;20031;-61
2021/08/06 05:41:46;;;;;;;5.30;2.90;;;;;;;;;;1484755;40;20029;-61
2021/08/06 05:42:48;;;;;;;5.05;2.90;;;;;;;;;;1484897;40;20396;-61
2021/08/06 05:43:49;;;;;;;5.15;2.90;;;;;;;;;;1484725;40;20028;-61
2021/08/06 05:44:51;;;;;;;4.38;2.85;;;;;;;;;;1484825;40;20044;-61
2021/08/06 05:45:52;;;;;;;7.35;2.97;;;;;;;;;;1484783;40;20261;-60
2021/08/06 05:46:53;;;;;;;5.63;2.85;;;;;;;;;;1484721;40;20033;-61
2021/08/06 05:47:56;;;;;;;5.65;2.90;;;;;;;;;;1484848;40;20380;-60
2021/08/06 05:48:59;;;;;;;6.50;3.00;;;;;;;;;;1484735;40;20024;-61
2021/08/06 05:50:00;;;;;;;5.57;2.70;;;;;;;;;;1484730;40;20029;-61
2021/08/06 05:51:02;;;;;;;5.28;2.70;;;;;;;;;;1484771;40;20294;-60
2021/08/06 05:52:05;;;;;;;4.07;2.90;;;;;;;;;;1484722;40;20116;-61
2021/08/06 05:53:06;;;;;;;6.85;2.72;;;;;;;;;;1484635;40;20296;-61
2021/08/06 05:54:08;;;;;;;5.20;2.63;;;;;;;;;;1484735;40;20032;-61
2021/08/06 05:55:10;;;;;;;4.22;2.40;;;;;;;;;;1484771;40;20025;-61
2021/08/06 05:56:12;;;;;;;5.97;2.90;;;;;;;;;;1484735;40;20340;-61
2021/08/06 05:57:13;;;;;;;4.53;2.60;;;;;;;;;;1484736;40;20044;-60
2021/08/06 05:58:15;;;;;;;7.65;3.05;;;;;;;;;;1484739;40;20044;-60
2021/08/06 05:59:16;;;;;;;5.63;2.85;;;;;;;;;;1484816;40;20403;-61
2021/08/06 06:00:18;;;;;;;6.00;2.58;;;;;;;;;;1484848;40;20037;-61
2021/08/06 06:01:19;;;;;;;6.75;2.78;;;;;;;;;;1484722;40;20029;-60
2021/08/06 06:02:20;;;;;;;4.88;2.60;;;;;;;;;;1484728;40;20048;-61
2021/08/06 06:03:22;;;;;;;5.15;2.80;;;;;;;;;;1484735;40;20288;-60
2021/08/06 06:04:24;;;;;;;4.28;2.78;;;;;;;;;;1484832;40;20294;-61
2021/08/06 06:05:26;;;;;;;4.95;2.80;;;;;;;;;;1484752;40;20121;-61
2021/08/06 06:06:27;;;;;;;5.53;3.10;;;;;;;;;;1484658;40;20017;-60
2021/08/06 06:07:29;;;;;;;6.20;2.53;;;;;;;;;;1484768;40;20392;-61
2021/08/06 06:08:31;;;;;;;4.93;2.92;;;;;;;;;;1484680;40;20028;-60
2021/08/06 06:09:34;;;;;;;5.47;2.92;;;;;;;;;;1484732;40;20392;-61
2021/08/06 06:10:35;;;;;;;6.82;3.15;;;;;;;;;;1484631;40;20032;-61
2021/08/06 06:11:36;;;;;;;5.57;3.10;;;;;;;;;;1484839;40;20292;-61
2021/08/06 06:12:38;;;;;;;5.43;3.20;;;;;;;;;;1484673;40;20288;-61
2021/08/06 06:13:39;;;;;;;7.90;2.90;;;;;;;;;;1484690;40;20406;-60